Time;durP1;ratioP1;P1;durP2;ratioP2;P2;SDS_P1;SDS_P2;PMS_P1;PMS_P2;Temp;Humidity;BMP_temperature;BMP_pressure;BME280_temperature;BME280_humidity;BME280_pressure;Samples;Min_cycle;Max_cycle;Signal;HPM_P1;HPM_P2
2020/12/13 00:02:13;;;;;;;32.33;20.83;;;3.80;80.20;;;;;;5033428;28;20529;-62
2020/12/13 00:04:39;;;;;;;33.17;21.37;;;3.80;80.10;;;;;;5033479;28;20104;-61
2020/12/13 00:07:06;;;;;;;31.93;21.27;;;3.80;80.10;;;;;;5033374;28;20083;-61
2020/12/13 00:09:32;;;;;;;31.60;22.00;;;3.80;80.30;;;;;;5033132;28;20076;-62
2020/12/13 00:12:00;;;;;;;33.47;22.47;;;3.80;80.40;;;;;;5033436;28;20425;-65
2020/12/13 00:14:26;;;;;;;30.60;21.13;;;3.70;80.20;;;;;;5032956;28;20031;-66
2020/12/13 00:16:52;;;;;;;33.33;22.77;;;3.80;80.40;;;;;;5032825;28;20049;-66
2020/12/13 00:19:18;;;;;;;30.37;22.33;;;3.70;80.60;;;;;;5033194;28;20425;-61
2020/12/13 00:21:52;;;;;;;31.83;21.50;;;3.70;80.60;;;;;;5032815;28;20029;-62
2020/12/13 00:24:19;;;;;;;30.40;20.23;;;3.70;80.60;;;;;;5033451;28;20474;-62
2020/12/13 00:26:45;;;;;;;35.10;23.23;;;3.70;80.60;;;;;;5033093;28;20060;-62
2020/12/13 00:29:11;;;;;;;34.97;21.30;;;3.70;80.50;;;;;;5032435;28;20057;-62
2020/12/13 00:31:36;;;;;;;36.60;21.67;;;3.70;80.40;;;;;;5033330;28;20037;-62
2020/12/13 00:34:03;;;;;;;32.33;22.43;;;3.70;80.30;;;;;;5032890;28;20083;-62
2020/12/13 00:36:29;;;;;;;31.57;20.60;;;3.70;80.40;;;;;;5031255;28;20432;-62
2020/12/13 00:38:54;;;;;;;32.20;20.70;;;3.70;80.50;;;;;;5033338;28;20030;-62
2020/12/13 00:41:20;;;;;;;33.00;22.10;;;3.60;80.70;;;;;;5032983;28;20068;-61
2020/12/13 00:43:46;;;;;;;35.77;23.57;;;3.70;80.30;;;;;;5033024;28;20049;-62
2020/12/13 00:46:11;;;;;;;37.77;24.00;;;3.70;80.30;;;;;;5032698;28;20109;-62
2020/12/13 00:48:37;;;;;;;34.60;23.70;;;3.60;80.10;;;;;;5032871;28;20038;-66
2020/12/13 00:51:03;;;;;;;34.43;21.73;;;3.60;80.00;;;;;;5032995;28;20045;-66
2020/12/13 00:53:28;;;;;;;35.10;23.03;;;3.60;80.10;;;;;;5032897;28;20490;-62
2020/12/13 00:55:54;;;;;;;36.67;24.33;;;3.50;79.90;;;;;;5032704;28;20033;-62
2020/12/13 00:58:20;;;;;;;38.90;23.93;;;3.50;79.80;;;;;;5032870;28;20410;-62
2020/12/13 01:00:45;;;;;;;39.23;24.80;;;3.50;80.10;;;;;;5032924;28;20022;-62
2020/12/13 01:03:11;;;;;;;36.50;24.57;;;3.50;80.40;;;;;;5032812;28;20036;-64
2020/12/13 01:05:37;;;;;;;33.70;23.30;;;3.40;80.50;;;;;;5032454;28;20036;-62
2020/12/13 01:08:03;;;;;;;34.67;23.27;;;3.40;80.60;;;;;;5032937;28;20037;-62
2020/12/13 01:10:29;;;;;;;33.40;22.03;;;3.40;80.70;;;;;;5032746;28;20483;-65
2020/12/13 01:12:54;;;;;;;31.33;21.97;;;3.40;81.00;;;;;;5032611;28;20540;-61
2020/12/13 01:15:20;;;;;;;31.40;21.43;;;3.40;81.00;;;;;;5032493;28;20123;-62
2020/12/13 01:17:47;;;;;;;30.33;20.27;;;3.40;81.00;;;;;;5032511;28;20081;-62
2020/12/13 01:20:14;;;;;;;27.77;19.30;;;3.40;81.40;;;;;;5032641;28;20060;-62
2020/12/13 01:22:40;;;;;;;31.10;17.80;;;3.30;81.40;;;;;;5032570;28;20048;-62
2020/12/13 01:25:07;;;;;;;26.67;17.10;;;3.40;81.90;;;;;;5032198;28;20477;-62
2020/12/13 01:27:34;;;;;;;24.23;16.37;;;3.40;82.00;;;;;;5032561;28;20083;-62
2020/12/13 01:29:59;;;;;;;23.70;15.33;;;3.40;82.20;;;;;;5032404;28;20041;-62
2020/12/13 01:32:25;;;;;;;21.67;14.13;;;3.40;82.40;;;;;;5032503;28;20113;-62
2020/12/13 01:34:51;;;;;;;19.03;12.77;;;3.40;82.40;;;;;;5032387;28;20056;-62
2020/12/13 01:37:17;;;;;;;17.40;11.50;;;3.50;82.60;;;;;;5032321;28;20096;-66
2020/12/13 01:39:42;;;;;;;18.67;11.53;;;3.50;82.60;;;;;;5033188;28;20099;-61
2020/12/13 01:42:08;;;;;;;13.73;9.73;;;3.50;82.50;;;;;;5036223;28;20083;-61
2020/12/13 01:44:35;;;;;;;16.60;11.27;;;3.60;82.40;;;;;;5035949;28;20075;-66
2020/12/13 01:47:02;;;;;;;14.63;9.80;;;3.60;82.30;;;;;;5035959;28;20033;-62
2020/12/13 01:49:33;;;;;;;14.13;9.57;;;3.60;82.30;;;;;;5035375;28;20045;-66
2020/12/13 01:52:49;;;;;;;12.23;8.77;;;3.60;82.00;;;;;;5035792;28;20025;-62
2020/12/13 01:55:07;;;;;;;12.30;8.83;;;3.60;82.10;;;;;;5035281;28;20041;-64
2020/12/13 01:57:40;;;;;;;12.70;8.50;;;3.70;81.90;;;;;;5035170;28;20025;-62
2020/12/13 02:00:12;;;;;;;11.27;7.40;;;3.70;81.60;;;;;;5032762;28;20453;-62
2020/12/13 02:02:43;;;;;;;13.20;7.20;;;3.70;81.60;;;;;;5032579;28;20029;-62
2020/12/13 02:05:10;;;;;;;10.93;7.33;;;3.70;82.10;;;;;;5034345;28;20028;-61
2020/12/13 02:07:37;;;;;;;10.87;7.03;;;3.70;82.20;;;;;;5035872;28;20494;-62
2020/12/13 02:10:06;;;;;;;11.30;6.67;;;3.70;82.10;;;;;;5035387;28;20079;-62
2020/12/13 02:12:32;;;;;;;8.30;5.90;;;3.70;82.10;;;;;;5035310;28;20032;-62
2020/12/13 02:14:58;;;;;;;8.83;5.83;;;3.80;82.40;;;;;;5035434;28;20029;-62
2020/12/13 02:17:24;;;;;;;7.97;5.77;;;3.80;82.50;;;;;;5035158;28;20148;-62
2020/12/13 02:19:50;;;;;;;7.50;5.50;;;3.80;82.60;;;;;;5035249;28;20049;-62
2020/12/13 02:22:18;;;;;;;8.37;5.93;;;3.90;82.50;;;;;;5035023;28;20018;-61
2020/12/13 02:24:44;;;;;;;8.20;5.93;;;3.80;82.50;;;;;;5035192;28;20108;-62
2020/12/13 02:27:10;;;;;;;7.77;6.03;;;3.80;82.50;;;;;;5035160;28;20061;-62
2020/12/13 02:29:36;;;;;;;8.50;5.83;;;3.80;82.80;;;;;;5034779;28;20018;-62
2020/12/13 02:32:03;;;;;;;6.80;5.10;;;3.90;82.80;;;;;;5035210;28;20497;-62
2020/12/13 02:34:28;;;;;;;7.57;5.30;;;3.90;82.80;;;;;;5035003;28;20024;-66
2020/12/13 02:36:55;;;;;;;7.87;5.47;;;3.90;82.70;;;;;;5034640;28;20022;-62
2020/12/13 02:39:20;;;;;;;8.00;5.27;;;3.90;82.60;;;;;;5035060;28;20359;-61
2020/12/13 02:42:02;;;;;;;7.77;5.43;;;4.00;82.60;;;;;;5034782;28;20026;-62
2020/12/13 02:44:28;;;;;;;6.90;5.20;;;4.00;82.50;;;;;;5034703;28;20026;-66
2020/12/13 02:46:54;;;;;;;6.23;4.70;;;4.00;82.20;;;;;;5034883;28;20029;-62
2020/12/13 02:49:20;;;;;;;6.87;4.90;;;4.10;82.20;;;;;;5034614;28;20091;-61
2020/12/13 02:51:46;;;;;;;6.27;4.77;;;4.10;82.00;;;;;;5033680;28;20013;-61
2020/12/13 02:54:12;;;;;;;6.77;4.80;;;4.20;81.80;;;;;;5034756;28;20049;-61
2020/12/13 02:56:40;;;;;;;7.67;5.10;;;4.20;81.70;;;;;;5034711;28;20036;-62
2020/12/13 02:59:07;;;;;;;8.23;4.77;;;4.20;81.70;;;;;;5034227;28;20501;-66
2020/12/13 03:01:33;;;;;;;6.97;5.47;;;4.30;81.60;;;;;;5034606;28;20038;-65
2020/12/13 03:03:59;;;;;;;8.87;5.70;;;4.30;81.40;;;;;;5034948;28;20027;-62
2020/12/13 03:06:24;;;;;;;7.33;5.17;;;4.30;80.90;;;;;;5034336;28;20029;-62
2020/12/13 03:08:50;;;;;;;8.20;5.27;;;4.30;80.50;;;;;;5034456;28;20022;-62
2020/12/13 03:11:20;;;;;;;7.67;5.33;;;4.30;80.70;;;;;;5034416;28;20502;-62
2020/12/13 03:13:49;;;;;;;7.77;5.07;;;4.30;80.40;;;;;;5034628;28;20030;-62
2020/12/13 03:16:15;;;;;;;8.57;5.43;;;4.20;80.80;;;;;;5034125;28;20025;-62
2020/12/13 03:18:41;;;;;;;7.07;4.70;;;4.20;80.30;;;;;;5034116;28;20051;-62
2020/12/13 03:21:07;;;;;;;6.93;4.97;;;4.20;80.50;;;;;;5034249;28;20061;-62
2020/12/13 03:23:33;;;;;;;7.40;5.30;;;4.20;80.30;;;;;;5034165;28;20074;-62
2020/12/13 03:25:59;;;;;;;9.50;5.40;;;4.10;80.40;;;;;;5034051;28;20105;-62
2020/12/13 03:28:24;;;;;;;6.73;5.03;;;4.10;80.60;;;;;;5034061;28;20018;-62
2020/12/13 03:30:50;;;;;;;8.50;5.57;;;4.20;80.70;;;;;;5033980;28;20513;-62
2020/12/13 03:33:16;;;;;;;8.70;5.33;;;4.10;80.00;;;;;;5034044;28;20021;-66
2020/12/13 03:35:42;;;;;;;6.80;5.13;;;4.10;79.80;;;;;;5033811;28;20112;-66
2020/12/13 03:38:07;;;;;;;6.63;4.83;;;4.10;80.00;;;;;;5034003;28;20462;-62
2020/12/13 03:40:33;;;;;;;7.63;5.30;;;4.10;80.10;;;;;;5033680;28;20013;-66
2020/12/13 03:42:59;;;;;;;7.07;5.13;;;4.00;80.60;;;;;;5033736;28;20072;-62
2020/12/13 03:45:25;;;;;;;7.40;5.53;;;4.00;80.40;;;;;;5033598;28;20018;-62
2020/12/13 03:47:50;;;;;;;6.60;5.33;;;4.10;80.50;;;;;;5033516;28;20026;-63
2020/12/13 03:50:16;;;;;;;6.53;5.30;;;4.00;80.60;;;;;;5033288;28;20037;-61
2020/12/13 03:52:42;;;;;;;7.97;5.33;;;4.10;80.70;;;;;;5033715;28;20366;-62
2020/12/13 03:55:08;;;;;;;7.00;5.30;;;4.10;80.70;;;;;;5033717;28;20402;-62
2020/12/13 03:57:33;;;;;;;9.13;5.77;;;4.10;80.90;;;;;;5033693;28;20025;-62
2020/12/13 03:59:59;;;;;;;6.57;5.13;;;4.10;80.70;;;;;;5033404;28;20025;-62
2020/12/13 04:02:25;;;;;;;7.50;5.30;;;4.10;80.60;;;;;;5033496;28;20044;-66
2020/12/13 04:04:51;;;;;;;6.90;4.83;;;4.10;80.40;;;;;;5032529;28;20079;-62
2020/12/13 04:07:17;;;;;;;6.10;4.67;;;4.10;80.40;;;;;;5033535;28;20028;-62
2020/12/13 04:09:42;;;;;;;8.37;5.20;;;4.00;80.40;;;;;;5033191;28;20026;-61
2020/12/13 04:12:08;;;;;;;6.20;4.40;;;4.00;80.60;;;;;;5032580;28;20017;-62
2020/12/13 04:14:33;;;;;;;5.27;4.20;;;4.00;80.60;;;;;;5031842;28;20494;-62
2020/12/13 04:16:59;;;;;;;6.27;4.53;;;4.00;80.70;;;;;;5033091;28;20037;-62
2020/12/13 04:19:25;;;;;;;8.07;4.83;;;4.00;81.00;;;;;;5033101;28;20021;-66
2020/12/13 04:21:50;;;;;;;7.13;4.80;;;4.00;81.00;;;;;;5033013;28;20026;-64
2020/12/13 04:24:16;;;;;;;5.80;4.77;;;4.00;80.60;;;;;;5033111;28;20029;-62
2020/12/13 04:26:42;;;;;;;6.67;4.97;;;3.90;80.50;;;;;;5033104;28;20026;-62
2020/12/13 04:29:07;;;;;;;6.37;4.87;;;3.90;80.60;;;;;;5033022;28;20100;-63
2020/12/13 04:31:33;;;;;;;7.50;5.30;;;3.90;80.70;;;;;;5032702;28;20431;-62
2020/12/13 04:33:59;;;;;;;6.87;4.93;;;3.90;80.60;;;;;;5032837;28;20064;-61
2020/12/13 04:36:24;;;;;;;6.90;4.50;;;3.90;80.90;;;;;;5032882;28;20108;-61
2020/12/13 04:38:50;;;;;;;7.03;4.80;;;3.90;80.90;;;;;;5032937;28;20425;-62
2020/12/13 04:41:16;;;;;;;5.97;4.47;;;3.80;80.90;;;;;;5033046;28;20026;-62
2020/12/13 04:43:42;;;;;;;6.43;5.17;;;3.90;81.00;;;;;;5033024;28;20451;-62
2020/12/13 04:46:08;;;;;;;6.27;4.70;;;3.90;81.00;;;;;;5032946;28;20379;-62
2020/12/13 04:48:35;;;;;;;7.50;4.73;;;3.90;81.10;;;;;;5032798;28;20025;-66
2020/12/13 04:51:00;;;;;;;7.37;4.47;;;3.80;80.50;;;;;;5032855;28;20041;-63
2020/12/13 04:53:29;;;;;;;6.53;4.73;;;3.80;80.30;;;;;;5032933;28;20482;-61
2020/12/13 04:56:00;;;;;;;7.57;5.00;;;3.70;80.20;;;;;;5032608;28;20087;-61
2020/12/13 04:58:27;;;;;;;7.67;4.87;;;3.70;80.50;;;;;;5032725;28;20075;-62
2020/12/13 05:01:02;;;;;;;7.37;5.00;;;3.70;80.70;;;;;;5032836;28;20032;-62
2020/12/13 05:03:28;;;;;;;6.87;4.83;;;3.60;80.90;;;;;;5032925;28;20018;-62
2020/12/13 05:06:04;;;;;;;7.57;4.60;;;3.60;81.00;;;;;;5032740;28;20390;-61
2020/12/13 05:08:31;;;;;;;7.33;5.30;;;3.60;81.00;;;;;;5032874;28;20032;-62
2020/12/13 05:10:57;;;;;;;8.47;5.80;;;3.60;81.00;;;;;;5032332;28;20040;-66
2020/12/13 05:13:23;;;;;;;10.43;4.77;;;3.60;80.80;;;;;;5032714;28;20031;-61
2020/12/13 05:15:49;;;;;;;7.03;5.20;;;3.60;80.80;;;;;;5035188;28;20029;-62
2020/12/13 05:18:15;;;;;;;8.50;5.77;;;3.60;80.90;;;;;;5036524;28;20586;-66
2020/12/13 05:20:43;;;;;;;8.10;6.07;;;3.50;81.00;;;;;;5036284;28;20484;-62
2020/12/13 05:23:09;;;;;;;9.50;5.57;;;3.50;80.90;;;;;;5036174;28;20089;-63
2020/12/13 05:25:37;;;;;;;8.00;6.10;;;3.50;81.00;;;;;;5036414;28;20025;-66
2020/12/13 05:28:05;;;;;;;7.60;5.90;;;3.50;81.10;;;;;;5036269;28;20036;-61
2020/12/13 05:30:36;;;;;;;8.43;6.10;;;3.50;81.30;;;;;;5036559;28;20037;-61
2020/12/13 05:33:05;;;;;;;8.63;5.83;;;3.50;81.40;;;;;;5036236;28;20033;-61
2020/12/13 05:35:30;;;;;;;8.07;5.87;;;3.50;81.50;;;;;;5036127;28;20033;-61
2020/12/13 05:37:56;;;;;;;8.27;5.90;;;3.60;81.50;;;;;;5036080;28;20501;-62
2020/12/13 05:40:23;;;;;;;8.40;5.80;;;3.60;81.50;;;;;;5036329;28;20030;-62
2020/12/13 05:43:05;;;;;;;7.93;5.70;;;3.60;81.40;;;;;;5036190;28;20025;-66
2020/12/13 05:53:03;;;;;;;8.07;5.30;;;3.70;81.40;;;;;;5036157;28;20060;-62
2020/12/13 05:55:30;;;;;;;7.23;5.70;;;3.70;81.50;;;;;;5035884;28;20055;-62
2020/12/13 05:57:56;;;;;;;7.47;5.33;;;3.70;81.40;;;;;;5036048;28;20069;-63
2020/12/13 06:00:22;;;;;;;7.10;5.47;;;3.70;81.30;;;;;;5035905;28;20052;-62
2020/12/13 06:02:49;;;;;;;7.97;5.03;;;3.70;80.70;;;;;;5035528;28;20034;-62
2020/12/13 06:05:16;;;;;;;9.37;5.87;;;3.80;80.00;;;;;;5035742;28;20473;-62
2020/12/13 06:07:50;;;;;;;9.77;5.60;;;3.70;79.80;;;;;;5035718;28;20059;-62
2020/12/13 06:10:24;;;;;;;7.17;4.97;;;3.70;79.70;;;;;;5035682;28;20069;-62
2020/12/13 06:13:01;;;;;;;6.90;5.10;;;3.70;79.70;;;;;;5035790;28;20060;-62
2020/12/13 06:15:28;;;;;;;7.60;5.17;;;3.60;79.70;;;;;;5035542;28;20021;-65
2020/12/13 06:17:54;;;;;;;8.37;5.40;;;3.60;79.60;;;;;;5035518;28;20057;-62
2020/12/13 06:20:21;;;;;;;9.20;5.93;;;3.50;79.80;;;;;;5035512;28;20029;-63
2020/12/13 06:22:50;;;;;;;8.90;5.37;;;3.50;80.00;;;;;;5035437;28;20053;-62
2020/12/13 06:25:18;;;;;;;7.80;5.20;;;3.50;80.20;;;;;;5035339;28;20021;-65
2020/12/13 06:27:44;;;;;;;10.37;5.97;;;3.40;80.40;;;;;;5034519;28;20482;-61
2020/12/13 06:30:10;;;;;;;11.17;5.97;;;3.50;80.70;;;;;;5035183;28;20065;-62
2020/12/13 06:32:42;;;;;;;7.73;5.23;;;3.50;80.80;;;;;;5035081;28;20423;-62
2020/12/13 06:35:09;;;;;;;8.13;5.50;;;3.50;80.90;;;;;;5035183;28;20021;-66
2020/12/13 06:37:37;;;;;;;7.33;5.47;;;3.50;80.80;;;;;;5034822;28;20064;-65
2020/12/13 06:40:13;;;;;;;8.20;5.57;;;3.60;80.80;;;;;;5034887;28;20045;-62
2020/12/13 06:42:41;;;;;;;8.90;6.50;;;3.60;80.80;;;;;;5034671;28;20478;-65
2020/12/13 06:45:13;;;;;;;14.03;8.87;;;3.60;80.80;;;;;;5034537;28;20496;-62
2020/12/13 06:47:40;;;;;;;9.30;6.83;;;3.60;80.90;;;;;;5034543;28;20148;-65
2020/12/13 06:50:09;;;;;;;8.27;5.83;;;3.60;80.80;;;;;;5034741;28;20113;-65
2020/12/13 06:52:35;;;;;;;9.30;6.30;;;3.70;80.80;;;;;;5034505;28;20104;-62
2020/12/13 06:55:06;;;;;;;8.23;5.73;;;3.70;80.70;;;;;;5034416;28;20026;-61
2020/12/13 06:57:35;;;;;;;9.70;5.93;;;3.70;80.70;;;;;;5034079;28;20047;-62
2020/12/13 07:00:09;;;;;;;8.10;5.60;;;3.70;80.60;;;;;;5035023;28;20021;-57
2020/12/13 07:02:58;;;;;;;7.80;5.67;;;3.70;80.40;;;;;;5033158;28;20125;-62
2020/12/13 07:05:52;;;;;;;9.20;5.37;;;3.80;80.40;;;;;;5034385;28;20082;-62
2020/12/13 07:08:22;;;;;;;10.07;5.80;;;3.80;80.70;;;;;;5034489;28;20044;-62
2020/12/13 07:10:51;;;;;;;9.37;6.53;;;3.80;80.50;;;;;;5034238;28;20040;-61
2020/12/13 07:13:21;;;;;;;10.63;6.83;;;3.80;80.40;;;;;;5034200;28;20022;-61
2020/12/13 07:16:15;;;;;;;11.57;7.60;;;3.80;80.40;;;;;;5034512;28;20033;-62
2020/12/13 07:18:46;;;;;;;14.60;8.83;;;3.80;80.40;;;;;;5032304;28;20049;-61
2020/12/13 07:21:15;;;;;;;12.37;8.43;;;3.70;80.20;;;;;;5031538;28;20025;-62
2020/12/13 07:23:40;;;;;;;13.63;9.27;;;3.70;80.10;;;;;;5031665;28;20041;-62
2020/12/13 07:26:07;;;;;;;13.93;9.30;;;3.70;80.10;;;;;;5033560;28;20021;-62
2020/12/13 07:28:33;;;;;;;12.47;8.60;;;3.70;80.30;;;;;;5033891;28;20025;-61
2020/12/13 07:31:03;;;;;;;14.47;8.23;;;3.70;80.40;;;;;;5033304;28;20029;-66
2020/12/13 07:33:29;;;;;;;11.87;8.07;;;3.80;80.50;;;;;;5031952;28;20311;-62
2020/12/13 07:35:56;;;;;;;11.30;7.60;;;3.80;80.50;;;;;;5031143;28;20087;-61
2020/12/13 07:38:22;;;;;;;15.50;7.23;;;3.80;80.60;;;;;;5030373;28;20033;-61
2020/12/13 07:40:49;;;;;;;11.87;8.10;;;3.90;80.50;;;;;;5031093;28;20041;-63
2020/12/13 07:43:14;;;;;;;9.87;6.83;;;3.90;80.50;;;;;;5031238;28;20113;-61
2020/12/13 07:45:40;;;;;;;11.20;7.57;;;4.00;80.60;;;;;;5033432;28;20057;-61
2020/12/13 07:48:06;;;;;;;9.73;7.20;;;4.10;80.60;;;;;;5033641;28;20026;-61
2020/12/13 07:50:45;;;;;;;11.20;7.40;;;4.20;80.50;;;;;;5033728;28;20038;-61
2020/12/13 07:53:22;;;;;;;11.03;7.27;;;4.30;80.50;;;;;;5033690;28;20497;-61
2020/12/13 07:55:47;;;;;;;9.63;7.33;;;4.50;80.20;;;;;;5033260;28;20091;-61
2020/12/13 07:58:18;;;;;;;11.03;7.23;;;4.60;79.90;;;;;;5031677;28;20467;-61
2020/12/13 08:00:45;;;;;;;9.57;7.07;;;4.70;79.60;;;;;;5031390;28;20026;-61
2020/12/13 08:03:10;;;;;;;10.97;6.43;;;4.80;79.30;;;;;;5032946;28;20129;-68
2020/12/13 08:05:38;;;;;;;9.30;6.37;;;4.90;79.70;;;;;;5031715;28;20392;-61
2020/12/13 08:08:04;;;;;;;9.17;6.13;;;5.00;78.90;;;;;;5030828;28;20398;-63
2020/12/13 08:10:30;;;;;;;13.27;7.13;;;5.10;79.10;;;;;;5031100;28;20041;-61
2020/12/13 08:12:56;;;;;;;12.13;6.20;;;5.20;78.10;;;;;;5031527;28;20100;-66
2020/12/13 08:15:22;;;;;;;12.43;6.90;;;5.20;78.00;;;;;;5031740;28;20025;-62
2020/12/13 08:18:05;;;;;;;8.67;6.10;;;5.30;77.90;;;;;;5032144;28;20097;-63
2020/12/13 08:20:37;;;;;;;9.33;6.03;;;5.40;77.70;;;;;;5032205;28;20029;-65
2020/12/13 08:23:06;;;;;;;8.00;6.53;;;5.50;77.40;;;;;;5032160;28;20382;-62
2020/12/13 08:25:35;;;;;;;7.83;6.00;;;5.60;77.00;;;;;;5032739;28;20070;-66
2020/12/13 08:28:05;;;;;;;7.37;5.57;;;5.70;76.80;;;;;;5032565;28;20109;-65
2020/12/13 08:30:32;;;;;;;7.33;5.43;;;5.80;76.50;;;;;;5032226;28;20037;-61
2020/12/13 08:32:58;;;;;;;10.87;5.57;;;5.90;76.20;;;;;;5032498;28;20025;-64
2020/12/13 08:35:27;;;;;;;6.63;5.30;;;6.00;75.70;;;;;;5032434;28;20022;-67
2020/12/13 08:37:57;;;;;;;7.97;5.77;;;6.00;75.40;;;;;;5032514;28;20028;-63
2020/12/13 08:40:38;;;;;;;8.27;5.67;;;6.10;75.10;;;;;;5032385;28;20021;-63
2020/12/13 08:43:04;;;;;;;9.60;6.27;;;6.10;74.90;;;;;;5031617;28;20057;-65
2020/12/13 08:45:31;;;;;;;9.30;6.30;;;6.20;74.70;;;;;;5031098;28;20037;-60
2020/12/13 08:48:01;;;;;;;9.23;6.60;;;6.30;74.50;;;;;;5031456;28;20060;-61
2020/12/13 08:50:27;;;;;;;8.13;6.50;;;6.30;74.40;;;;;;5032550;28;20039;-62
2020/12/13 08:52:53;;;;;;;10.57;6.50;;;6.40;74.30;;;;;;5034835;28;20097;-62
2020/12/13 08:55:27;;;;;;;8.33;6.40;;;6.40;74.10;;;;;;5035349;28;20055;-61
2020/12/13 08:58:00;;;;;;;11.13;7.23;;;6.40;74.10;;;;;;5033262;28;20026;-62
2020/12/13 09:00:27;;;;;;;8.77;6.47;;;6.50;73.90;;;;;;5032936;28;20029;-62
2020/12/13 09:02:58;;;;;;;9.53;6.63;;;6.60;74.00;;;;;;5033348;28;20496;-64
2020/12/13 09:05:34;;;;;;;7.87;5.40;;;6.60;73.70;;;;;;5035191;28;20041;-62
2020/12/13 09:08:01;;;;;;;6.90;5.00;;;6.70;73.10;;;;;;5035870;28;20021;-63
2020/12/13 09:10:39;;;;;;;7.67;5.50;;;6.80;72.80;;;;;;5036203;28;20042;-62
2020/12/13 09:13:08;;;;;;;10.33;5.77;;;6.80;72.60;;;;;;5036212;28;20017;-63
2020/12/13 09:15:33;;;;;;;8.63;5.97;;;6.90;72.50;;;;;;5035598;28;20498;-63
2020/12/13 09:18:02;;;;;;;8.27;6.17;;;6.90;72.10;;;;;;5036375;28;20045;-66
2020/12/13 09:20:28;;;;;;;8.60;5.87;;;7.00;72.30;;;;;;5055521;28;20025;-62
2020/12/13 09:23:04;;;;;;;8.47;5.57;;;7.10;72.00;;;;;;5053927;28;20025;-62
2020/12/13 09:25:36;;;;;;;8.57;6.03;;;7.20;71.70;;;;;;5052967;28;20033;-62
2020/12/13 09:28:03;;;;;;;7.88;5.88;;;7.30;71.40;;;;;;5053290;28;20052;-62
2020/12/13 09:30:29;;;;;;;7.50;5.60;;;7.30;71.10;;;;;;5055220;28;20749;-62
2020/12/13 09:32:55;;;;;;;8.50;5.87;;;7.40;70.80;;;;;;5055898;28;20099;-62
2020/12/13 09:35:21;;;;;;;6.43;4.60;;;7.50;70.50;;;;;;5055580;28;20029;-62
2020/12/13 09:37:47;;;;;;;7.03;4.60;;;7.60;70.40;;;;;;5055435;28;20017;-62
2020/12/13 09:40:12;;;;;;;9.10;5.40;;;7.60;70.20;;;;;;5055675;28;20021;-62
2020/12/13 09:42:38;;;;;;;7.33;4.97;;;7.70;69.90;;;;;;5055640;28;20033;-62
2020/12/13 09:45:04;;;;;;;6.63;4.80;;;7.80;69.40;;;;;;5055593;28;20036;-61
2020/12/13 09:47:30;;;;;;;8.87;5.20;;;7.80;69.00;;;;;;5055678;28;20033;-61
2020/12/13 09:49:58;;;;;;;5.70;4.07;;;8.00;69.00;;;;;;5055837;28;20041;-61
2020/12/13 09:52:25;;;;;;;5.03;3.70;;;8.00;67.80;;;;;;5055562;28;20052;-61
2020/12/13 09:54:51;;;;;;;4.53;3.37;;;8.10;67.80;;;;;;5055118;28;20029;-62
2020/12/13 09:57:17;;;;;;;6.53;3.73;;;8.20;67.60;;;;;;5055391;28;20458;-61
2020/12/13 09:59:43;;;;;;;7.03;3.83;;;8.30;67.30;;;;;;5055618;28;20039;-62
2020/12/13 10:02:08;;;;;;;6.27;3.77;;;8.40;67.20;;;;;;5053947;28;20390;-61
2020/12/13 10:04:35;;;;;;;4.60;3.50;;;8.50;66.50;;;;;;5055355;28;20035;-61
2020/12/13 10:09:26;;;;;;;4.97;3.50;;;8.70;66.50;;;;;;5054832;28;20029;-61
2020/12/13 10:11:52;;;;;;;6.43;4.10;;;8.70;65.90;;;;;;5054873;28;20056;-61
2020/12/13 10:14:18;;;;;;;8.13;3.87;;;8.80;65.80;;;;;;5055368;28;20025;-61
2020/12/13 10:16:44;;;;;;;4.23;3.40;;;8.90;65.70;;;;;;5054960;28;20083;-61
2020/12/13 10:19:10;;;;;;;5.03;4.00;;;9.00;65.00;;;;;;5055360;28;20104;-61
2020/12/13 10:21:37;;;;;;;6.40;3.37;;;9.10;64.70;;;;;;5054923;28;20100;-61
2020/12/13 10:24:03;;;;;;;4.20;3.33;;;9.10;64.00;;;;;;5054866;28;20029;-61
2020/12/13 10:26:32;;;;;;;6.63;4.00;;;9.20;63.50;;;;;;5055362;28;20484;-61
2020/12/13 10:28:59;;;;;;;4.60;3.33;;;9.30;63.40;;;;;;5055184;28;20020;-61
2020/12/13 10:31:33;;;;;;;4.60;3.40;;;9.40;63.00;;;;;;5054816;28;20112;-61
2020/12/13 10:34:00;;;;;;;4.53;3.50;;;9.50;63.40;;;;;;5055118;28;20382;-61
2020/12/13 10:36:27;;;;;;;4.33;3.47;;;9.50;63.10;;;;;;5054903;28;20482;-61
2020/12/13 10:38:53;;;;;;;4.97;3.53;;;9.60;62.80;;;;;;5054779;28;20021;-61
2020/12/13 10:41:20;;;;;;;3.17;2.63;;;9.70;62.80;;;;;;5054960;28;20017;-61
2020/12/13 10:43:46;;;;;;;4.83;3.20;;;9.80;62.10;;;;;;5054724;28;20598;-61
2020/12/13 10:46:12;;;;;;;4.07;3.17;;;9.90;61.70;;;;;;5054514;28;20086;-61
2020/12/13 10:48:38;;;;;;;4.20;3.03;;;10.00;61.20;;;;;;5054707;28;20028;-61
2020/12/13 10:51:04;;;;;;;3.40;3.00;;;10.10;60.10;;;;;;5054560;28;20064;-61
2020/12/13 10:53:29;;;;;;;4.53;3.27;;;10.10;60.20;;;;;;5054446;28;20044;-61
2020/12/13 10:55:55;;;;;;;4.30;3.40;;;10.20;60.00;;;;;;5054886;28;20025;-61
2020/12/13 10:58:21;;;;;;;5.20;3.73;;;10.30;60.50;;;;;;5054716;28;20090;-61
2020/12/13 11:00:47;;;;;;;5.10;3.67;;;10.40;59.80;;;;;;5054251;28;20063;-61
2020/12/13 11:03:16;;;;;;;9.00;3.67;;;10.50;59.40;;;;;;5054657;28;20158;-61
2020/12/13 11:05:43;;;;;;;4.80;3.37;;;10.50;58.80;;;;;;5054379;28;20025;-61
2020/12/13 11:08:09;;;;;;;4.32;3.13;;;10.60;59.10;;;;;;5054399;28;20029;-61
2020/12/13 11:10:36;;;;;;;4.50;3.03;;;10.60;59.00;;;;;;5054172;28;20044;-61
2020/12/13 11:13:01;;;;;;;4.53;3.03;;;10.70;59.30;;;;;;5053729;28;20025;-61
2020/12/13 11:15:27;;;;;;;3.65;2.65;;;10.70;59.30;;;;;;5054266;28;20108;-61
2020/12/13 11:17:53;;;;;;;4.53;3.33;;;10.80;59.10;;;;;;5054077;28;20493;-61
2020/12/13 11:20:18;;;;;;;3.72;2.60;;;10.90;59.30;;;;;;5054243;28;20071;-61
2020/12/13 11:22:44;;;;;;;3.83;2.70;;;11.00;58.90;;;;;;5053012;28;20075;-62
2020/12/13 11:25:10;;;;;;;3.47;2.80;;;11.00;57.50;;;;;;5051453;28;20033;-61
2020/12/13 11:27:36;;;;;;;3.65;2.80;;;11.10;57.50;;;;;;5051636;28;20424;-61
2020/12/13 11:30:09;;;;;;;3.00;2.45;;;11.10;56.60;;;;;;5052433;28;20539;-61
2020/12/13 11:32:34;;;;;;;5.82;3.00;;;11.10;56.80;;;;;;5053932;28;20021;-61
2020/12/13 11:35:00;;;;;;;3.33;2.40;;;11.20;56.70;;;;;;5053894;28;20104;-62
2020/12/13 11:37:26;;;;;;;4.30;3.22;;;11.20;56.60;;;;;;5053715;28;20024;-61
2020/12/13 11:39:52;;;;;;;4.75;3.20;;;11.10;56.80;;;;;;5053535;28;20025;-61
2020/12/13 11:42:19;;;;;;;4.95;3.45;;;11.20;57.00;;;;;;5053509;28;20057;-61
2020/12/13 11:44:46;;;;;;;3.90;3.20;;;11.20;56.30;;;;;;5053824;28;20053;-61
2020/12/13 11:47:12;;;;;;;5.40;3.20;;;11.20;56.30;;;;;;5053192;28;20025;-61
2020/12/13 11:49:37;;;;;;;4.43;3.10;;;11.20;57.00;;;;;;5053491;28;20431;-61
2020/12/13 11:52:03;;;;;;;5.10;3.75;;;11.20;57.60;;;;;;5053630;28;20079;-61
2020/12/13 11:54:29;;;;;;;3.80;3.03;;;11.20;57.10;;;;;;5053314;28;20474;-61
2020/12/13 11:56:56;;;;;;;4.25;3.20;;;11.20;55.70;;;;;;5053488;28;20070;-61
2020/12/13 11:59:22;;;;;;;4.18;3.03;;;11.20;56.50;;;;;;5053505;28;20025;-61
2020/12/13 12:01:48;;;;;;;7.30;3.10;;;11.20;56.80;;;;;;5053210;28;20381;-61
2020/12/13 12:04:14;;;;;;;4.85;3.30;;;11.10;56.50;;;;;;5053582;28;20382;-62
2020/12/13 12:06:46;;;;;;;5.03;3.38;;;11.10;57.00;;;;;;5053156;28;20032;-62
2020/12/13 12:09:14;;;;;;;;;;;11.10;57.50;;;;;;5053387;28;20020;-61
2020/12/13 12:11:40;;;;;;;4.63;3.47;;;11.10;57.20;;;;;;5053037;28;19966;-61
2020/12/13 12:14:10;;;;;;;5.18;3.47;;;11.10;57.00;;;;;;5053166;28;20025;-61
2020/12/13 12:16:37;;;;;;;5.60;3.38;;;11.10;57.50;;;;;;5052785;28;20454;-61
2020/12/13 12:19:03;;;;;;;6.20;3.88;;;11.10;57.40;;;;;;5053253;28;20021;-61
2020/12/13 12:21:30;;;;;;;6.10;4.00;;;11.10;57.00;;;;;;5052833;28;20029;-61
2020/12/13 12:23:55;;;;;;;5.63;3.17;;;11.00;57.00;;;;;;5052415;28;20087;-61
2020/12/13 12:26:21;;;;;;;5.10;3.55;;;11.00;57.30;;;;;;5052628;28;20429;-61
2020/12/13 12:28:48;;;;;;;4.70;3.05;;;11.00;56.60;;;;;;5053072;28;20028;-61
2020/12/13 12:31:20;;;;;;;5.63;3.30;;;10.90;56.70;;;;;;5052621;28;20036;-61
2020/12/13 12:33:46;;;;;;;6.05;3.50;;;10.90;56.90;;;;;;5053078;28;20468;-61
2020/12/13 12:36:21;;;;;;;5.65;3.20;;;10.90;57.10;;;;;;5052885;28;20024;-61
2020/12/13 12:38:47;;;;;;;6.25;3.90;;;10.80;57.10;;;;;;5052887;28;20053;-61
2020/12/13 12:41:16;;;;;;;4.28;3.13;;;10.80;57.30;;;;;;5052985;28;20029;-61
2020/12/13 12:43:43;;;;;;;4.15;3.08;;;10.80;56.60;;;;;;5053062;28;20033;-61
2020/12/13 12:46:09;;;;;;;4.82;3.33;;;10.70;56.80;;;;;;5052421;28;20021;-61
2020/12/13 12:48:35;;;;;;;6.20;4.47;;;10.70;57.10;;;;;;5052840;28;20025;-61
2020/12/13 12:51:05;;;;;;;4.47;3.42;;;10.70;57.40;;;;;;5052735;28;20040;-61
2020/12/13 12:53:31;;;;;;;5.20;3.50;;;10.60;57.70;;;;;;5052532;28;20029;-61
2020/12/13 12:55:57;;;;;;;5.45;3.70;;;10.70;57.00;;;;;;5052824;28;20484;-61
2020/12/13 12:58:25;;;;;;;4.60;3.25;;;10.70;56.60;;;;;;5053160;28;20144;-61
2020/12/13 13:00:55;;;;;;;4.97;3.65;;;10.60;56.60;;;;;;5052265;28;20055;-61
2020/12/13 13:03:21;;;;;;;4.75;3.33;;;10.60;56.70;;;;;;5052622;28;20033;-61